Terminal Aerodrome Forecast
Issued by NWS

Home | Current Version | Previous Version | Text Only | Print | Product List | Glossary Off
Versions: 1 2 3 4 5 6 7 8 9 10 11 12 13 14 15 16

000
FTUS43 KMPX 150520
TAFRNH
TAF
KRNH 150520Z 1506/1606 35018G25KT 4SM -RA BR OVC012
     FM151300 32010KT P6SM SCT025 BKN035
     FM151800 29009KT P6SM BKN050 BKN100
     FM160100 24003KT P6SM SCT250=

USA.gov is the U.S. government's official web portal to all federal, state and local government web resources and services.